Sibirskiy-2112 — UBXE8 — position and weather

sailwx.info

Track history (hours):
 
Tides and Currents Weather Stations Pressure Air Temp Water Temp Dewpoint Dewpoint Depression Visibility Wind Speed Wind Dir Waves Ship Positions

Sibirskiy-2112

Last reported at 2014-May-14 19:15 UTC. Time now 2014-Jul-24 16:59 UTC.
Position N 44°38' E 035°37'.
Warning: this ship's position is months out of date.

Length 130 m; draft 3.5 m.

Type: Cargo ship. MMSI: 273342420.

Date/timePositionNaut miles runAvg speedWind from/ knotsBaromVisibWave heightAir tempDewpointWater temp
2014-May-14 19:15N 44°38' E 035°37'6 8.0
2014-May-14 18:27N 44°36' E 035°28'22 7.5
2014-May-14 15:31N 44°28' E 034°60'7 7.0
2014-May-14 14:34N 44°25' E 034°51'14 7.0
2014-May-14 12:34N 44°20' E 034°33'7 7.1
2014-May-14 11:34N 44°19' E 034°23'7 7.1
2014-May-14 10:34N 44°19' E 034°13'176 5.6
2014-May-13 03:26N 46°35' E 031°35'6 7.0
2014-May-13 02:33N 46°35' E 031°44'7 6.9
2014-May-13 01:34N 46°37' E 031°54'7 6.7
2014-May-13 00:33N 46°44' E 031°56'6 6.1
2014-May-12 23:34N 46°50' E 031°56'1 0.9
2014-May-12 22:33N 46°50' E 031°57'0 0.0
2014-May-12 21:33N 46°50' E 031°57'0 0.0
2014-May-12 19:33N 46°50' E 031°57'0 0.0
2014-May-12 18:33N 46°50' E 031°57'0 0.0
2014-May-12 18:00N 46°50' E 031°57'0 0.0
2014-May-12 17:33N 46°50' E 031°57'0 0.0
2014-May-12 16:33N 46°50' E 031°57'0 0.0
2014-May-12 15:33N 46°50' E 031°57'0 0.0
2014-May-12 14:33N 46°50' E 031°57'0 0.0
2014-May-12 13:33N 46°50' E 031°57'0 0.0
2014-May-12 12:33N 46°50' E 031°57'0 0.0
2014-May-12 11:33N 46°50' E 031°57'0 0.0
2014-May-12 10:33N 46°50' E 031°57'0 0.0
2014-May-12 09:33N 46°50' E 031°57'0 0.0
2014-May-12 08:33N 46°50' E 031°57'0 0.0
2014-May-12 07:33N 46°50' E 031°57'0 0.0
2014-May-11 17:23N 46°50' E 031°57'1 1.0
2014-May-11 16:33N 46°50' E 031°56'0 0.5
2014-May-11 15:31N 46°50' E 031°55'0 0.2
2014-May-11 14:33N 46°50' E 031°55'6 6.0
2014-May-11 13:33N 46°44' E 031°55'8 7.4
2014-May-11 12:32N 46°37' E 031°52'  
2014-May-08 12:31N 40°59' E 028°55'0 0.0
2014-May-08 11:21N 40°59' E 028°55'0 0.0
2014-May-08 10:33N 40°59' E 028°55'0 0.0
2014-May-08 09:32N 40°59' E 028°55'0 0.0
2014-May-08 08:15N 40°59' E 028°55'147 4.2
2014-May-06 21:10N 40°02' E 025°57'11 5.9
2014-May-06 19:18N 40°04' E 025°43'20 6.6
2014-May-06 16:15N 40°24' E 025°44'6 8.6
2014-May-06 15:33N 40°30' E 025°47'8 8.4
2014-May-06 14:33N 40°38' E 025°50'9 8.6
2014-May-06 13:33N 40°46' E 025°53'5 4.8
2014-May-06 12:33N 40°51' E 025°53'0 0.0
2014-May-06 11:33N 40°51' E 025°53'0 0.0
2014-May-06 10:33N 40°51' E 025°53'0 0.0
2014-May-06 09:30N 40°51' E 025°53'0 0.0
2014-May-06 08:33N 40°51' E 025°53'0 0.0
2014-May-06 07:33N 40°51' E 025°53'0 0.0
2014-May-06 06:30N 40°51' E 025°53'0 0.0
2014-May-06 05:32N 40°51' E 025°53'0 0.0
2014-May-06 04:32N 40°51' E 025°53'0 0.0
2014-May-06 03:32N 40°51' E 025°53'0 0.0
2014-May-06 02:29N 40°51' E 025°53'0 0.0
2014-May-06 01:32N 40°51' E 025°53'0 0.0
2014-May-06 00:32N 40°51' E 025°53'0 0.0
2014-May-05 23:32N 40°51' E 025°53'0 0.0
2014-May-05 22:32N 40°51' E 025°53'0 0.0
2014-May-05 21:29N 40°51' E 025°53'0 0.0
2014-May-05 20:32N 40°51' E 025°53'0 0.0
2014-May-05 19:32N 40°51' E 025°53'0 0.0
2014-May-05 18:32N 40°51' E 025°53'0 0.0
2014-May-05 17:29N 40°51' E 025°53'0 0.0
2014-May-05 16:32N 40°51' E 025°53'0 0.0
2014-May-05 15:32N 40°51' E 025°53'0 0.0
2014-May-05 14:31N 40°51' E 025°53'0 0.0
2014-May-05 13:31N 40°51' E 025°53'0 0.0
2014-May-05 12:31N 40°51' E 025°53'0 0.0
2014-May-05 11:31N 40°51' E 025°53'0 0.0
2014-May-05 10:31N 40°51' E 025°53'0 0.0
2014-May-05 09:31N 40°51' E 025°53'0 0.0
2014-May-05 08:31N 40°51' E 025°53'0 0.0
2014-May-05 07:31N 40°51' E 025°53'0 0.0
2014-May-05 06:31N 40°51' E 025°53'0 0.0
2014-May-05 05:31N 40°51' E 025°53'0 0.0
2014-May-05 04:31N 40°51' E 025°53'0 0.0
2014-May-05 03:31N 40°51' E 025°53'0 0.0
2014-May-05 02:31N 40°51' E 025°53'0 0.0
2014-May-05 01:31N 40°51' E 025°53'0 0.0
2014-May-05 00:31N 40°51' E 025°53'0 0.0
2014-May-04 23:31N 40°51' E 025°53'0 0.0
2014-May-04 22:31N 40°51' E 025°53'0 0.0
2014-May-04 21:31N 40°51' E 025°53'0 0.0
2014-May-04 20:31N 40°51' E 025°53'0 0.0
2014-May-04 19:25N 40°51' E 025°53'  
Track history (hours):
 
Tides and Currents Weather Stations Pressure Air Temp Water Temp Dewpoint Dewpoint Depression Visibility Wind Speed Wind Dir Waves Ship Positions

Sibirskiy-2112

Last reported at 2014-May-14 19:15 UTC. Time now 2014-Jul-24 16:59 UTC.
Position N 44°38' E 035°37'.
Warning: this ship's position is months out of date.

Length 130 m; draft 3.5 m.

Type: Cargo ship. MMSI: 273342420.

Date/timePositionNaut miles runAvg speedWind from/ knotsBaromVisibWave heightAir tempDewpointWater temp
2014-May-14 19:15N 44°38' E 035°37'6 8.0
2014-May-14 18:27N 44°36' E 035°28'22 7.5
2014-May-14 15:31N 44°28' E 034°60'7 7.0
2014-May-14 14:34N 44°25' E 034°51'14 7.0
2014-May-14 12:34N 44°20' E 034°33'7 7.1
2014-May-14 11:34N 44°19' E 034°23'7 7.1
2014-May-14 10:34N 44°19' E 034°13'176 5.6
2014-May-13 03:26N 46°35' E 031°35'6 7.0
2014-May-13 02:33N 46°35' E 031°44'7 6.9
2014-May-13 01:34N 46°37' E 031°54'7 6.7
2014-May-13 00:33N 46°44' E 031°56'6 6.1
2014-May-12 23:34N 46°50' E 031°56'1 0.9
2014-May-12 22:33N 46°50' E 031°57'0 0.0
2014-May-12 21:33N 46°50' E 031°57'0 0.0
2014-May-12 19:33N 46°50' E 031°57'0 0.0
2014-May-12 18:33N 46°50' E 031°57'0 0.0
2014-May-12 18:00N 46°50' E 031°57'0 0.0
2014-May-12 17:33N 46°50' E 031°57'0 0.0
2014-May-12 16:33N 46°50' E 031°57'0 0.0
2014-May-12 15:33N 46°50' E 031°57'0 0.0
2014-May-12 14:33N 46°50' E 031°57'0 0.0
2014-May-12 13:33N 46°50' E 031°57'0 0.0
2014-May-12 12:33N 46°50' E 031°57'0 0.0
2014-May-12 11:33N 46°50' E 031°57'0 0.0
2014-May-12 10:33N 46°50' E 031°57'0 0.0
2014-May-12 09:33N 46°50' E 031°57'0 0.0
2014-May-12 08:33N 46°50' E 031°57'0 0.0
2014-May-12 07:33N 46°50' E 031°57'0 0.0
2014-May-11 17:23N 46°50' E 031°57'1 1.0
2014-May-11 16:33N 46°50' E 031°56'0 0.5
2014-May-11 15:31N 46°50' E 031°55'0 0.2
2014-May-11 14:33N 46°50' E 031°55'6 6.0
2014-May-11 13:33N 46°44' E 031°55'8 7.4
2014-May-11 12:32N 46°37' E 031°52'  
2014-May-08 12:31N 40°59' E 028°55'0 0.0
2014-May-08 11:21N 40°59' E 028°55'0 0.0
2014-May-08 10:33N 40°59' E 028°55'0 0.0
2014-May-08 09:32N 40°59' E 028°55'0 0.0
2014-May-08 08:15N 40°59' E 028°55'147 4.2
2014-May-06 21:10N 40°02' E 025°57'11 5.9
2014-May-06 19:18N 40°04' E 025°43'20 6.6
2014-May-06 16:15N 40°24' E 025°44'6 8.6
2014-May-06 15:33N 40°30' E 025°47'8 8.4
2014-May-06 14:33N 40°38' E 025°50'9 8.6
2014-May-06 13:33N 40°46' E 025°53'5 4.8
2014-May-06 12:33N 40°51' E 025°53'0 0.0
2014-May-06 11:33N 40°51' E 025°53'0 0.0
2014-May-06 10:33N 40°51' E 025°53'0 0.0
2014-May-06 09:30N 40°51' E 025°53'0 0.0
2014-May-06 08:33N 40°51' E 025°53'0 0.0
2014-May-06 07:33N 40°51' E 025°53'0 0.0
2014-May-06 06:30N 40°51' E 025°53'0 0.0
2014-May-06 05:32N 40°51' E 025°53'0 0.0
2014-May-06 04:32N 40°51' E 025°53'0 0.0
2014-May-06 03:32N 40°51' E 025°53'0 0.0
2014-May-06 02:29N 40°51' E 025°53'0 0.0
2014-May-06 01:32N 40°51' E 025°53'0 0.0
2014-May-06 00:32N 40°51' E 025°53'0 0.0
2014-May-05 23:32N 40°51' E 025°53'0 0.0
2014-May-05 22:32N 40°51' E 025°53'0 0.0
2014-May-05 21:29N 40°51' E 025°53'0 0.0
2014-May-05 20:32N 40°51' E 025°53'0 0.0
2014-May-05 19:32N 40°51' E 025°53'0 0.0
2014-May-05 18:32N 40°51' E 025°53'0 0.0
2014-May-05 17:29N 40°51' E 025°53'0 0.0
2014-May-05 16:32N 40°51' E 025°53'0 0.0
2014-May-05 15:32N 40°51' E 025°53'0 0.0
2014-May-05 14:31N 40°51' E 025°53'0 0.0
2014-May-05 13:31N 40°51' E 025°53'0 0.0
2014-May-05 12:31N 40°51' E 025°53'0 0.0
2014-May-05 11:31N 40°51' E 025°53'0 0.0
2014-May-05 10:31N 40°51' E 025°53'0 0.0
2014-May-05 09:31N 40°51' E 025°53'0 0.0
2014-May-05 08:31N 40°51' E 025°53'0 0.0
2014-May-05 07:31N 40°51' E 025°53'0 0.0
2014-May-05 06:31N 40°51' E 025°53'0 0.0
2014-May-05 05:31N 40°51' E 025°53'0 0.0
2014-May-05 04:31N 40°51' E 025°53'0 0.0
2014-May-05 03:31N 40°51' E 025°53'0 0.0
2014-May-05 02:31N 40°51' E 025°53'0 0.0
2014-May-05 01:31N 40°51' E 025°53'0 0.0
2014-May-05 00:31N 40°51' E 025°53'0 0.0
2014-May-04 23:31N 40°51' E 025°53'0 0.0
2014-May-04 22:31N 40°51' E 025°53'0 0.0
2014-May-04 21:31N 40°51' E 025°53'0 0.0
2014-May-04 20:31N 40°51' E 025°53'0 0.0
2014-May-04 19:25N 40°51' E 025°53'  

Dump ship's entire track history